Terminal Aerodrome Forecast
Issued by NWS

Home | Current Version | Previous Version | Text Only | Print | Product List | Glossary On
Versions: 1 2 3 4 5 6 7 8 9 10 11 12 13 14 15 16 17 18 19 20
136
FTUS44 KTSA 301740
TAFBVO
TAF
KBVO 301740Z 3018/0118 22017G25KT P6SM VCSH BKN025 BKN035
     FM010000 23015G22KT P6SM BKN015 BKN025
     FM010300 24012G19KT P6SM BKN015
     FM011100 26011KT P6SM SCT015 BKN025
     FM011400 28012KT P6SM SKC=

USA.gov is the U.S. government's official web portal to all federal, state and local government web resources and services.